Time;durP1;ratioP1;P1;durP2;ratioP2;P2;SDS_P1;SDS_P2;PMS_P1;PMS_P2;Temp;Humidity;BMP_temperature;BMP_pressure;BME280_temperature;BME280_humidity;BME280_pressure;Samples;Min_cycle;Max_cycle;Signal;HPM_P1;HPM_P2
2023/09/16 00:57:06;;;;;;;;;;;;;;;18.42;67.94;99670.94;1087856;54;19926;-80
2023/09/16 01:38:08;;;;;;;;;;;;;;;17.87;71.00;99690.72;1087641;47;19935;-80
2023/09/16 01:39:10;;;;;;;;;;;;;;;17.85;70.92;99689.28;1087799;54;20687;-81
2023/09/16 01:40:14;;;;;;;;;;;;;;;17.84;70.84;99693.00;1087399;47;19953;-81
2023/09/16 01:41:17;;;;;;;;;;;;;;;17.82;70.57;99687.81;1087383;47;20482;-81
2023/09/16 01:42:19;;;;;;;;;;;;;;;17.84;70.84;99690.31;1087386;47;19943;-80
2023/09/16 01:43:29;;;;;;;;;;;;;;;17.84;70.27;99693.88;1087430;54;19942;-80
2023/09/16 01:44:32;;;;;;;;;;;;;;;17.85;70.43;99694.69;1087552;47;19973;-80
2023/09/16 01:45:42;;;;;;;;;;;;;;;17.81;70.67;99693.41;1087604;54;20019;-80
2023/09/16 01:46:46;;;;;;;;;;;;;;;17.78;70.50;99687.38;1087556;47;20645;-81
2023/09/16 01:47:53;;;;;;;;;;;;;;;17.76;71.03;99685.91;1087591;47;19942;-81
2023/09/16 01:48:54;;;;;;;;;;;;;;;17.74;71.17;99688.00;1087463;54;19951;-80
2023/09/16 01:49:57;;;;;;;;;;;;;;;17.72;71.31;99690.06;1087169;54;19949;-81
2023/09/16 01:52:37;;;;;;;;;;;;;;;17.62;71.55;99690.41;1087468;46;19955;-79
2023/09/16 01:53:41;;;;;;;;;;;;;;;17.60;71.44;99687.91;1087584;47;20011;-80
2023/09/16 01:54:44;;;;;;;;;;;;;;;17.58;71.63;99683.75;1101782;31;20652;-79
2023/09/16 01:55:45;;;;;;;;;;;;;;;17.59;71.26;99691.63;1087761;47;19943;-79
2023/09/16 01:56:48;;;;;;;;;;;;;;;17.61;71.40;99686.88;1090752;39;20542;-80
2023/09/16 01:57:55;;;;;;;;;;;;;;;17.64;71.20;99687.50;1087096;54;20863;-80
2023/09/16 01:59:03;;;;;;;;;;;;;;;17.62;71.41;99682.28;1088658;39;20620;-81
2023/09/16 02:00:13;;;;;;;;;;;;;;;17.58;71.25;99687.25;1089046;39;20359;-80
2023/09/16 02:01:35;;;;;;;;;;;;;;;17.54;71.40;99683.31;1089521;39;20632;-80
2023/09/16 02:03:00;;;;;;;;;;;;;;;17.56;71.49;99681.25;1087584;47;19976;-80
2023/09/16 02:06:00;;;;;;;;;;;;;;;;;;;;;
2023/09/16 02:07:27;;;;;;;;;;;;;;;17.51;71.24;99683.69;1088110;54;19938;-80
2023/09/16 02:47:39;;;;;;;;;;;;;;;17.22;72.79;99707.19;1087327;47;19969;-79
2023/09/16 02:49:02;;;;;;;;;;;;;;;17.25;72.66;99716.78;1087200;47;19962;-79
2023/09/16 02:50:07;;;;;;;;;;;;;;;17.21;72.42;99719.03;1086997;47;19943;-78
2023/09/16 03:02:28;;;;;;;;;;;;;;;17.01;73.13;99716.19;1087571;47;19973;-78
2023/09/16 03:05:24;;;;;;;;;;;;;;;17.08;72.77;99721.66;1087623;47;19943;-79
2023/09/16 03:09:49;;;;;;;;;;;;;;;16.91;73.52;99716.47;1087591;47;19927;-79
2023/09/16 03:10:54;;;;;;;;;;;;;;;16.83;74.04;99716.63;1087874;54;19955;-79
2023/09/16 03:15:14;;;;;;;;;;;;;;;16.77;73.87;99712.81;1087894;47;20339;-80
2023/09/16 03:16:46;;;;;;;;;;;;;;;16.78;74.05;99710.97;1087919;54;19973;-80
2023/09/16 03:18:15;;;;;;;;;;;;;;;16.79;73.86;99701.84;1087916;47;19950;-80
2023/09/16 03:19:28;;;;;;;;;;;;;;;16.83;73.63;99708.50;1087826;54;19999;-80
2023/09/16 03:39:32;;;;;;;;;;;;;;;17.24;71.89;99690.81;1088035;47;19942;-79
2023/09/16 03:40:36;;;;;;;;;;;;;;;17.21;72.02;99686.63;1088118;46;19943;-80
2023/09/16 03:41:57;;;;;;;;;;;;;;;17.24;71.68;99698.91;1087994;54;20002;-79
2023/09/16 03:42:59;;;;;;;;;;;;;;;17.23;71.71;99687.25;1088130;47;19942;-80
2023/09/16 03:44:06;;;;;;;;;;;;;;;17.25;71.49;99696.00;1088177;54;20334;-79
2023/09/16 03:56:56;;;;;;;;;;;;;;;17.16;71.90;99678.28;1088269;46;19942;-80
2023/09/16 03:58:40;;;;;;;;;;;;;;;17.18;71.68;99673.53;1088189;54;19951;-82
2023/09/16 04:03:17;;;;;;;;;;;;;;;17.12;72.46;99675.16;1087765;54;19919;-80
2023/09/16 04:04:19;;;;;;;;;;;;;;;17.15;71.97;99676.63;1088697;39;20703;-80
2023/09/16 04:05:22;;;;;;;;;;;;;;;17.17;72.02;99669.16;1087507;46;19939;-80
2023/09/16 04:06:23;;;;;;;;;;;;;;;17.15;71.63;99671.22;1087546;47;19942;-80
2023/09/16 04:07:26;;;;;;;;;;;;;;;17.17;71.59;99677.25;1087511;54;19943;-79
2023/09/16 04:08:27;;;;;;;;;;;;;;;17.20;71.23;99671.44;1087455;47;20022;-79
2023/09/16 04:09:33;;;;;;;;;;;;;;;17.20;71.41;99673.31;1087256;47;19957;-80
2023/09/16 04:10:34;;;;;;;;;;;;;;;17.18;71.42;99667.28;1087522;54;19954;-79
2023/09/16 04:11:37;;;;;;;;;;;;;;;17.18;71.43;99673.53;1087571;47;19942;-79
2023/09/16 04:12:38;;;;;;;;;;;;;;;17.20;71.19;99674.16;1087566;47;19967;-80
2023/09/16 04:13:52;;;;;;;;;;;;;;;17.20;71.40;99671.44;1087470;54;19980;-80
2023/09/16 04:14:53;;;;;;;;;;;;;;;17.21;71.01;99667.72;1087459;47;19950;-80
2023/09/16 04:15:57;;;;;;;;;;;;;;;17.25;71.32;99668.16;1087670;54;20665;-80
2023/09/16 04:16:57;;;;;;;;;;;;;;;17.20;71.62;99668.75;1087386;47;19977;-81
2023/09/16 04:38:29;;;;;;;;;;;;;;;17.06;71.55;99656.19;1086139;54;21182;-80
2023/09/16 04:39:32;;;;;;;;;;;;;;;17.07;71.65;99657.88;1087134;46;19939;-80
2023/09/16 04:40:36;;;;;;;;;;;;;;;17.09;71.13;99655.81;1085827;47;19950;-81
2023/09/16 04:43:13;;;;;;;;;;;;;;;17.04;71.71;99658.25;1087809;47;19979;-80
2023/09/16 04:44:17;;;;;;;;;;;;;;;17.02;71.61;99652.22;1087559;47;19965;-81
2023/09/16 04:45:24;;;;;;;;;;;;;;;17.02;71.70;99657.59;1087584;54;19942;-81
2023/09/16 04:46:52;;;;;;;;;;;;;;;;;;;;;
2023/09/16 04:50:04;;;;;;;;;;;;;;;;;;;;;
2023/09/16 04:53:16;;;;;;;;;;;;;;;16.96;71.35;99659.22;1088137;47;19939;-80
2023/09/16 04:55:14;;;;;;;;;;;;;;;16.88;71.82;99667.44;1091196;39;20551;-82
2023/09/16 04:56:40;;;;;;;;;;;;;;;16.77;72.60;99661.53;1088152;47;19942;-82
2023/09/16 04:57:41;;;;;;;;;;;;;;;16.66;73.18;99665.59;1099349;39;20531;-81
2023/09/16 04:58:44;;;;;;;;;;;;;;;16.56;73.57;99659.69;1087857;54;19973;-80
2023/09/16 05:00:33;;;;;;;;;;;;;;;16.48;74.27;99665.22;1088095;47;19942;-80
2023/09/16 05:06:03;;;;;;;;;;;;;;;16.23;75.11;99665.63;1087875;47;19966;-79
2023/09/16 05:07:07;;;;;;;;;;;;;;;16.14;75.37;99655.97;1086847;47;19950;-79
2023/09/16 05:08:10;;;;;;;;;;;;;;;16.13;75.17;99662.38;1087526;47;19943;-80
2023/09/16 05:09:11;;;;;;;;;;;;;;;16.17;74.97;99660.97;1092057;31;20676;-80
2023/09/16 05:10:15;;;;;;;;;;;;;;;16.21;74.90;99649.59;1087503;54;19950;-79
2023/09/16 05:11:18;;;;;;;;;;;;;;;16.29;74.57;99659.44;1087141;54;19943;-79
2023/09/16 05:12:24;;;;;;;;;;;;;;;16.33;74.28;99652.66;1087071;47;19974;-79
2023/09/16 05:13:37;;;;;;;;;;;;;;;16.28;74.05;99655.06;1087741;47;19942;-81
2023/09/16 05:15:04;;;;;;;;;;;;;;;16.21;74.34;99649.59;1087777;54;19957;-81
2023/09/16 05:16:33;;;;;;;;;;;;;;;16.25;74.21;99650.06;1087561;47;19927;-80
2023/09/16 05:18:09;;;;;;;;;;;;;;;16.17;74.41;99660.97;1087908;47;19943;-81
2023/09/16 05:19:11;;;;;;;;;;;;;;;16.17;74.36;99653.72;1087407;47;19927;-79
2023/09/16 05:20:24;;;;;;;;;;;;;;;16.15;74.25;99657.66;1087724;54;19942;-81
2023/09/16 05:21:35;;;;;;;;;;;;;;;16.17;74.48;99650.19;1087719;46;20521;-80
2023/09/16 05:24:15;;;;;;;;;;;;;;;16.12;74.53;99644.53;1087863;46;19998;-80
2023/09/16 05:25:40;;;;;;;;;;;;;;;16.13;74.51;99644.34;1088018;54;19943;-79
2023/09/16 05:26:54;;;;;;;;;;;;;;;16.17;74.36;99642.94;1196267;36;824705;-80
2023/09/16 05:28:30;;;;;;;;;;;;;;;16.20;74.07;99644.41;1089753;54;1321;-80
2023/09/16 05:29:31;;;;;;;;;;;;;;;16.14;74.27;99639.78;1089485;54;985;-80
2023/09/16 05:30:34;;;;;;;;;;;;;;;16.13;74.54;99638.94;1107813;36;11433;-79
2023/09/16 05:31:35;;;;;;;;;;;;;;;16.08;74.77;99651.31;1089589;46;1382;-79
2023/09/16 05:49:42;;;;;;;;;;;;;;;15.90;76.38;99649.88;1089698;46;1125;-82
2023/09/16 05:54:00;;;;;;;;;;;;;;;15.96;75.95;99651.84;1089456;46;867;-81
2023/09/16 05:55:09;;;;;;;;;;;;;;;15.97;75.90;99656.19;1089772;54;961;-81
2023/09/16 05:56:12;;;;;;;;;;;;;;;15.99;75.87;99653.31;1089500;46;1018;-80
2023/09/16 05:57:19;;;;;;;;;;;;;;;16.05;76.05;99658.78;1089514;46;1061;-79
2023/09/16 05:58:23;;;;;;;;;;;;;;;16.12;75.33;99658.03;1089785;54;1003;-81
2023/09/16 05:59:23;;;;;;;;;;;;;;;16.13;75.27;99659.69;1089830;47;1480;-80
2023/09/16 06:00:27;;;;;;;;;;;;;;;16.15;75.57;99657.66;1089804;46;1397;-81
2023/09/16 06:01:27;;;;;;;;;;;;;;;16.18;75.29;99659.94;1089742;54;990;-81
2023/09/16 06:02:31;;;;;;;;;;;;;;;16.18;75.38;99659.94;1089885;54;1014;-79
2023/09/16 06:03:31;;;;;;;;;;;;;;;16.18;75.12;99659.94;1089981;47;1371;-80
2023/09/16 06:04:35;;;;;;;;;;;;;;;16.20;75.06;99666.81;1090084;54;989;-78
2023/09/16 06:05:35;;;;;;;;;;;;;;;16.21;75.31;99656.88;1089967;54;996;-79
2023/09/16 06:06:39;;;;;;;;;;;;;;;16.22;75.43;99661.25;1090053;46;1383;-80
2023/09/16 06:07:40;;;;;;;;;;;;;;;16.17;75.40;99658.28;1090014;47;1840;-78
2023/09/16 06:08:44;;;;;;;;;;;;;;;16.17;75.50;99656.44;1090024;54;1074;-78
2023/09/16 06:09:47;;;;;;;;;;;;;;;16.21;75.16;99664.97;1090082;54;1384;-80
2023/09/16 06:10:50;;;;;;;;;;;;;;;16.22;75.16;99658.53;1090101;47;1458;-81
2023/09/16 06:11:51;;;;;;;;;;;;;;;16.23;75.45;99657.53;1090093;54;1022;-81
2023/09/16 06:12:55;;;;;;;;;;;;;;;16.25;75.11;99657.31;1089963;54;970;-79
2023/09/16 06:13:55;;;;;;;;;;;;;;;16.29;75.03;99664.84;1089810;54;964;-77
2023/09/16 06:14:59;;;;;;;;;;;;;;;16.33;74.92;99660.75;1089719;46;1479;-79
2023/09/16 06:15:59;;;;;;;;;;;;;;;16.33;74.91;99665.28;1089837;54;923;-79
2023/09/16 06:17:03;;;;;;;;;;;;;;;16.34;74.93;99667.78;1089930;54;980;-80
2023/09/16 06:19:56;;;;;;;;;;;;;;;16.39;74.75;99667.22;1089585;46;1385;-82
2023/09/16 06:29:36;;;;;;;;;;;;;;;16.66;73.65;99671.00;1086133;54;1383;-79
2023/09/16 06:32:34;;;;;;;;;;;;;;;16.72;73.39;99673.97;1089557;46;1005;-78
2023/09/16 06:33:49;;;;;;;;;;;;;;;16.71;73.72;99672.31;1088824;54;1050;-78
2023/09/16 06:35:03;;;;;;;;;;;;;;;16.77;73.27;99672.34;1087102;54;1030;-79
2023/09/16 06:36:24;;;;;;;;;;;;;;;;;;;;;
2023/09/16 06:37:37;;;;;;;;;;;;;;;16.86;72.83;99670.34;1089923;54;773;-79
2023/09/16 06:39:21;;;;;;;;;;;;;;;;;;;;;
2023/09/16 06:40:35;;;;;;;;;;;;;;;16.92;72.96;99680.34;1088671;54;1368;-81
2023/09/16 06:42:00;;;;;;;;;;;;;;;16.96;72.76;99676.28;1088924;54;1010;-82
2023/09/16 06:43:03;;;;;;;;;;;;;;;17.05;72.53;99676.13;1088934;54;1018;-80
2023/09/16 06:44:06;;;;;;;;;;;;;;;17.09;72.24;99674.72;1088716;47;1065;-83
2023/09/16 06:45:30;;;;;;;;;;;;;;;17.11;72.10;99669.94;1088772;47;949;-81
2023/09/16 06:46:45;;;;;;;;;;;;;;;17.18;71.95;99672.69;1088382;54;1022;-80
2023/09/16 06:59:16;;;;;;;;;;;;;;;17.66;70.74;99675.47;1087255;54;876;-79
2023/09/16 07:01:40;;;;;;;;;;;;;;;17.72;70.47;99676.53;1088371;54;1379;-79
2023/09/16 07:06:38;;;;;;;;;;;;;;;18.00;69.54;99667.53;1088138;47;1041;-79
2023/09/16 07:09:38;;;;;;;;;;;;;;;18.14;69.30;99671.09;1088213;47;940;-80
2023/09/16 07:11:06;;;;;;;;;;;;;;;18.20;68.95;99665.72;1087962;54;1451;-83
2023/09/16 07:23:34;;;;;;;;;;;;;;;18.51;68.66;99664.34;1908456;54;50696;-79
2023/09/16 07:24:35;;;;;;;;;;;;;;;18.54;68.78;99660.38;1087240;46;1198;-80
2023/09/16 07:25:39;;;;;;;;;;;;;;;18.59;68.81;99662.47;1086837;54;1355;-78
2023/09/16 07:26:42;;;;;;;;;;;;;;;18.69;68.21;99657.47;1088601;46;998;-80
2023/09/16 07:27:47;;;;;;;;;;;;;;;18.65;68.53;99658.91;1088692;54;1181;-83
2023/09/16 07:28:48;;;;;;;;;;;;;;;18.61;68.62;99657.69;1089791;47;1078;-82
2023/09/16 07:44:04;;;;;;;;;;;;;;;19.26;66.78;99659.75;1089850;54;791;-81
2023/09/16 07:45:34;;;;;;;;;;;;;;;19.24;67.07;99664.56;1088522;54;1170;-81
2023/09/16 07:47:02;;;;;;;;;;;;;;;19.41;66.47;99654.91;1090060;54;1089;-83
2023/09/16 07:48:17;;;;;;;;;;;;;;;19.51;66.36;99664.47;1087325;54;1105;-81
2023/09/16 07:49:30;;;;;;;;;;;;;;;19.56;66.55;99661.94;1088101;54;1618;-81
2023/09/16 07:50:47;;;;;;;;;;;;;;;19.54;66.08;99655.94;1089754;54;1340;-82
2023/09/16 07:51:50;;;;;;;;;;;;;;;19.59;65.74;99654.25;1086420;54;1444;-80
2023/09/16 07:52:51;;;;;;;;;;;;;;;19.74;65.73;99658.56;1085896;54;1177;-79
2023/09/16 07:53:54;;;;;;;;;;;;;;;19.85;65.39;99651.63;1088862;47;1098;-79
2023/09/16 07:55:02;;;;;;;;;;;;;;;19.82;65.56;99658.31;1089679;54;1118;-82
2023/09/16 07:56:12;;;;;;;;;;;;;;;19.91;65.35;99658.94;1089530;53;1029;-81
2023/09/16 07:57:13;;;;;;;;;;;;;;;20.04;65.26;99664.28;1090087;54;1063;-81
2023/09/16 07:58:16;;;;;;;;;;;;;;;20.30;64.67;99664.38;1090168;54;1850;-80
2023/09/16 07:59:20;;;;;;;;;;;;;;;20.48;64.29;99669.88;1090134;54;1217;-79
2023/09/16 08:00:33;;;;;;;;;;;;;;;20.72;63.56;99665.53;1089929;47;1240;-80
2023/09/16 08:01:34;;;;;;;;;;;;;;;20.86;62.75;99660.03;1089636;46;1014;-79
2023/09/16 08:02:53;;;;;;;;;;;;;;;20.87;62.47;99657.09;1089555;54;1115;-81
2023/09/16 08:04:00;;;;;;;;;;;;;;;21.00;61.95;99655.31;1087435;54;1226;-80
2023/09/16 08:05:03;;;;;;;;;;;;;;;21.03;61.96;99661.13;1086426;47;1442;-80
2023/09/16 08:06:04;;;;;;;;;;;;;;;21.15;61.89;99665.84;1087302;46;1087;-81
2023/09/16 08:07:07;;;;;;;;;;;;;;;21.36;61.14;99653.72;1088583;54;1028;-80
2023/09/16 08:08:08;;;;;;;;;;;;;;;21.47;60.84;99657.56;1086582;54;1152;-80
2023/09/16 08:09:11;;;;;;;;;;;;;;;21.62;60.62;99662.66;1086758;51;1768;-79
2023/09/16 08:10:11;;;;;;;;;;;;;;;21.74;60.05;99660.00;1086460;46;1373;-79
2023/09/16 08:11:15;;;;;;;;;;;;;;;21.87;60.39;99659.03;1088086;54;1130;-82
2023/09/16 08:12:19;;;;;;;;;;;;;;;22.04;58.91;99659.19;1089956;46;904;-82
2023/09/16 08:13:23;;;;;;;;;;;;;;;22.21;58.60;99654.78;1089049;54;1063;-79
2023/09/16 08:14:24;;;;;;;;;;;;;;;22.33;58.44;99656.72;1087307;54;1119;-78
2023/09/16 08:15:27;;;;;;;;;;;;;;;22.36;58.41;99656.25;1085589;46;1187;-78
2023/09/16 08:16:28;;;;;;;;;;;;;;;22.51;58.15;99659.41;1086191;47;1357;-80
2023/09/16 08:17:31;;;;;;;;;;;;;;;22.65;58.25;99660.03;1087695;46;1121;-80
2023/09/16 08:18:32;;;;;;;;;;;;;;;22.93;58.01;99655.78;1086743;47;1889;-79
2023/09/16 08:19:38;;;;;;;;;;;;;;;23.14;57.52;99661.72;1085624;47;1165;-78
2023/09/16 08:20:38;;;;;;;;;;;;;;;23.29;56.91;99648.47;1087494;54;1410;-80
2023/09/16 08:21:42;;;;;;;;;;;;;;;23.49;56.02;99645.38;1088223;47;1088;-81
2023/09/16 08:22:42;;;;;;;;;;;;;;;23.66;56.60;99656.34;1088353;46;1532;-79
2023/09/16 08:23:46;;;;;;;;;;;;;;;23.79;55.85;99655.25;1088003;46;1161;-79
2023/09/16 08:24:50;;;;;;;;;;;;;;;23.95;55.25;99650.13;1087886;47;1058;-81
2023/09/16 08:25:53;;;;;;;;;;;;;;;23.97;55.72;99648.00;1086677;54;1424;-80
2023/09/16 08:26:54;;;;;;;;;;;;;;;24.07;54.92;99652.81;1088143;46;1126;-79
2023/09/16 08:27:59;;;;;;;;;;;;;;;24.18;55.17;99657.41;1086150;46;1205;-79
2023/09/16 08:29:00;;;;;;;;;;;;;;;24.29;54.18;99651.06;1086960;54;1557;-79
2023/09/16 08:30:03;;;;;;;;;;;;;;;24.27;53.42;99657.84;1086277;54;1524;-79
2023/09/16 08:31:04;;;;;;;;;;;;;;;24.52;53.65;99653.91;1086124;46;1441;-81
2023/09/16 08:32:07;;;;;;;;;;;;;;;24.69;52.94;99653.94;1085747;54;1211;-80
2023/09/16 08:33:14;;;;;;;;;;;;;;;24.80;52.30;99652.19;1087116;46;1006;-81
2023/09/16 08:34:26;;;;;;;;;;;;;;;24.97;52.89;99654.94;1085828;47;1560;-80
2023/09/16 08:37:20;;;;;;;;;;;;;;;25.22;52.21;99658.03;1088198;46;968;-81
2023/09/16 08:40:09;;;;;;;;;;;;;;;25.63;51.45;99652.31;1087778;46;1420;-80
2023/09/16 08:41:25;;;;;;;;;;;;;;;25.78;50.92;99665.38;1088169;54;1192;-80
2023/09/16 08:42:33;;;;;;;;;;;;;;;25.75;50.32;99665.88;1087774;54;1117;-80
2023/09/16 08:43:51;;;;;;;;;;;;;;;25.81;49.13;99659.41;1086801;47;1621;-79
2023/09/16 08:44:56;;;;;;;;;;;;;;;25.79;50.18;99660.75;1086651;47;1408;-84
2023/09/16 09:02:36;;;;;;;;;;;;;;;26.53;48.60;99673.06;1083979;54;1121;-78
2023/09/16 09:03:45;;;;;;;;;;;;;;;26.83;48.15;99663.44;1083376;47;1229;-78
2023/09/16 09:04:59;;;;;;;;;;;;;;;27.00;47.89;99668.78;1084012;54;1030;-78
2023/09/16 09:06:04;;;;;;;;;;;;;;;27.11;47.86;99661.47;1084560;54;1069;-78
2023/09/16 09:07:14;;;;;;;;;;;;;;;27.17;46.80;99660.41;1084656;54;1313;-79
2023/09/16 09:08:15;;;;;;;;;;;;;;;26.61;47.51;99663.50;1084682;54;1150;-82
2023/09/16 09:09:18;;;;;;;;;;;;;;;26.46;47.92;99659.56;1087228;54;1132;-79
2023/09/16 09:10:19;;;;;;;;;;;;;;;26.62;48.16;99656.94;1086463;47;1494;-79
2023/09/16 09:11:22;;;;;;;;;;;;;;;26.69;47.85;99659.47;1087241;47;1049;-79
2023/09/16 09:12:23;;;;;;;;;;;;;;;26.76;47.52;99657.34;1087225;54;1156;-80
2023/09/16 09:13:27;;;;;;;;;;;;;;;26.83;47.96;99659.91;1086310;54;1131;-79
2023/09/16 09:14:34;;;;;;;;;;;;;;;26.95;47.71;99666.03;1086191;47;1144;-78
2023/09/16 09:15:37;;;;;;;;;;;;;;;27.29;47.23;99656.66;1084880;54;1183;-79
2023/09/16 09:16:38;;;;;;;;;;;;;;;27.44;46.75;99656.75;1086149;54;1185;-79
2023/09/16 09:17:42;;;;;;;;;;;;;;;27.28;46.92;99652.25;1086875;54;1213;-78
2023/09/16 09:18:55;;;;;;;;;;;;;;;27.47;46.55;99652.66;1087599;54;1840;-79
2023/09/16 09:19:58;;;;;;;;;;;;;;;27.50;46.44;99658.41;1085537;47;1348;-79
2023/09/16 09:20:59;;;;;;;;;;;;;;;27.61;45.95;99661.22;1085317;47;1672;-77
2023/09/16 09:22:04;;;;;;;;;;;;;;;27.49;46.01;99653.22;1084495;54;1133;-78
2023/09/16 09:23:04;;;;;;;;;;;;;;;27.04;46.67;99655.38;1083547;54;1159;-78
2023/09/16 09:24:08;;;;;;;;;;;;;;;27.24;46.61;99650.03;1083131;47;1498;-77
2023/09/16 09:25:10;;;;;;;;;;;;;;;27.46;46.21;99648.25;1083574;54;1531;-79
2023/09/16 09:26:14;;;;;;;;;;;;;;;27.58;46.38;99650.78;1083213;47;1030;-78
2023/09/16 09:27:15;;;;;;;;;;;;;;;27.66;45.71;99655.75;1083521;54;1053;-79
2023/09/16 09:28:18;;;;;;;;;;;;;;;27.83;45.46;99647.28;1083873;54;1168;-79
2023/09/16 09:29:21;;;;;;;;;;;;;;;27.93;45.59;99652.00;1082674;54;1562;-77
2023/09/16 09:30:27;;;;;;;;;;;;;;;27.94;45.27;99651.72;1083210;54;1510;-78
2023/09/16 09:31:28;;;;;;;;;;;;;;;27.58;45.74;99654.34;1085137;54;1194;-80
2023/09/16 09:32:34;;;;;;;;;;;;;;;27.58;45.81;99648.84;1085752;46;1082;-81
2023/09/16 09:33:44;;;;;;;;;;;;;;;27.84;45.39;99652.53;1086472;47;1159;-82
2023/09/16 09:34:50;;;;;;;;;;;;;;;28.17;44.78;99647.69;1085432;54;1088;-79
2023/09/16 09:36:08;;;;;;;;;;;;;;;28.31;44.63;99641.69;1084883;54;1185;-80
2023/09/16 09:37:17;;;;;;;;;;;;;;;28.58;44.60;99644.16;1084718;54;1114;-80
2023/09/16 09:38:20;;;;;;;;;;;;;;;28.68;44.43;99635.09;1087330;47;1629;-82
2023/09/16 09:39:23;;;;;;;;;;;;;;;28.79;43.78;99642.28;1087774;54;1860;-82
2023/09/16 09:40:24;;;;;;;;;;;;;;;28.86;43.35;99639.22;1088481;47;1307;-82
2023/09/16 09:41:27;;;;;;;;;;;;;;;29.01;43.54;99635.63;1088409;54;1105;-82
2023/09/16 09:42:28;;;;;;;;;;;;;;;28.96;43.08;99632.91;1088092;47;1252;-81
2023/09/16 09:43:32;;;;;;;;;;;;;;;28.73;42.88;99637.88;1086008;47;1149;-83
2023/09/16 09:44:34;;;;;;;;;;;;;;;28.75;43.52;99641.19;1083716;47;1161;-81
2023/09/16 09:45:39;;;;;;;;;;;;;;;28.86;43.74;99643.94;1083374;47;1156;-81
2023/09/16 09:46:40;;;;;;;;;;;;;;;28.95;43.65;99642.25;1082965;54;1156;-80
2023/09/16 09:47:44;;;;;;;;;;;;;;;29.07;43.31;99641.97;1083324;47;1495;-80
2023/09/16 09:48:44;;;;;;;;;;;;;;;29.21;42.55;99636.69;1083136;54;1140;-79
2023/09/16 09:49:50;;;;;;;;;;;;;;;29.24;42.94;99638.91;1082735;47;1176;-80
2023/09/16 09:50:51;;;;;;;;;;;;;;;29.49;42.65;99637.19;1081816;54;1163;-79
2023/09/16 09:51:54;;;;;;;;;;;;;;;29.61;42.45;99634.94;1082269;54;1062;-80
2023/09/16 09:52:55;;;;;;;;;;;;;;;29.56;41.71;99630.28;1082130;47;1141;-80
2023/09/16 09:53:59;;;;;;;;;;;;;;;29.63;42.42;99631.91;1081812;47;1077;-81
2023/09/16 09:55:00;;;;;;;;;;;;;;;29.93;42.08;99630.97;1081691;47;1169;-80
2023/09/16 09:56:04;;;;;;;;;;;;;;;30.06;41.59;99623.19;1082192;47;1603;-78
2023/09/16 09:57:05;;;;;;;;;;;;;;;30.21;41.10;99627.75;1082060;54;1146;-79
2023/09/16 09:58:05;;;;;;;;;;;;;;;30.32;40.92;99621.88;1082165;47;1062;-78
2023/09/16 09:59:09;;;;;;;;;;;;;;;29.89;40.71;99621.59;1081579;47;1905;-80
2023/09/16 10:00:13;;;;;;;;;;;;;;;29.23;41.66;99626.25;1081559;54;1326;-79
2023/09/16 10:01:17;;;;;;;;;;;;;;;29.27;41.79;99630.91;1081927;54;1623;-81
2023/09/16 10:02:23;;;;;;;;;;;;;;;29.11;42.15;99626.56;1081276;47;1156;-79
2023/09/16 10:03:27;;;;;;;;;;;;;;;28.76;42.83;99625.53;1081764;47;1442;-80
2023/09/16 10:04:28;;;;;;;;;;;;;;;28.61;42.99;99632.63;1083584;54;1252;-80
2023/09/16 10:05:36;;;;;;;;;;;;;;;28.50;43.01;99622.72;1083263;54;1070;-82
2023/09/16 10:06:37;;;;;;;;;;;;;;;28.93;42.87;99628.78;1083124;47;1157;-79
2023/09/16 10:07:43;;;;;;;;;;;;;;;29.27;42.09;99624.59;1082443;47;1462;-82
2023/09/16 10:08:45;;;;;;;;;;;;;;;29.62;41.61;99627.50;1082913;47;1030;-79
2023/09/16 10:09:45;;;;;;;;;;;;;;;29.90;40.87;99620.50;1082758;47;1398;-80
2023/09/16 10:10:49;;;;;;;;;;;;;;;29.83;40.42;99625.50;1082683;47;1628;-80
2023/09/16 10:11:50;;;;;;;;;;;;;;;30.15;40.71;99629.72;1083656;54;1070;-81
2023/09/16 10:12:52;;;;;;;;;;;;;;;30.34;40.11;99625.19;1082599;54;1159;-79
2023/09/16 10:13:55;;;;;;;;;;;;;;;30.12;40.14;99622.88;1084379;54;993;-82
2023/09/16 10:14:56;;;;;;;;;;;;;;;30.40;40.27;99630.69;1084877;54;1168;-81
2023/09/16 10:16:00;;;;;;;;;;;;;;;30.54;39.83;99628.13;1087123;47;1086;-82
2023/09/16 10:17:02;;;;;;;;;;;;;;;30.52;39.53;99619.28;1087590;47;1166;-82
2023/09/16 10:18:06;;;;;;;;;;;;;;;30.61;39.42;99625.84;1088160;54;1204;-82
2023/09/16 10:19:06;;;;;;;;;;;;;;;30.12;39.97;99627.56;1087547;54;1852;-83
2023/09/16 10:20:15;;;;;;;;;;;;;;;29.67;40.58;99625.56;1087017;46;1316;-81
2023/09/16 10:21:19;;;;;;;;;;;;;;;29.50;40.88;99631.44;1085677;47;1638;-80
2023/09/16 10:22:22;;;;;;;;;;;;;;;29.94;40.81;99627.13;1085595;47;1585;-80
2023/09/16 10:23:23;;;;;;;;;;;;;;;30.21;40.34;99617.59;1085550;54;1117;-80
2023/09/16 10:24:27;;;;;;;;;;;;;;;30.24;39.94;99619.75;1083940;54;1137;-80
2023/09/16 10:25:28;;;;;;;;;;;;;;;30.48;39.64;99624.53;1082821;54;1576;-80
2023/09/16 10:26:31;;;;;;;;;;;;;;;30.78;39.42;99617.16;1084629;47;1470;-81
2023/09/16 10:27:37;;;;;;;;;;;;;;;30.76;38.63;99611.09;1086279;47;1030;-81
2023/09/16 10:28:46;;;;;;;;;;;;;;;30.85;38.74;99611.28;1084797;47;1102;-82
2023/09/16 10:29:48;;;;;;;;;;;;;;;30.95;38.73;99606.50;1131014;36;9858;-81
2023/09/16 10:30:52;;;;;;;;;;;;;;;30.92;38.68;99612.56;1024600;36;5012421;-80
2023/09/16 10:31:53;;;;;;;;;;;;;;;30.78;38.58;99612.44;1441406;36;9516;-80
2023/09/16 10:32:55;;;;;;;;;;;;;;;30.37;39.40;99612.75;1448953;36;5302;-81
2023/09/16 10:33:59;;;;;;;;;;;;;;;30.28;39.44;99608.97;1455973;36;5238;-79
2023/09/16 10:35:03;;;;;;;;;;;;;;;30.56;39.11;99598.31;1450964;36;5206;-79
2023/09/16 10:36:08;;;;;;;;;;;;;;;30.92;38.54;99606.25;1457779;36;7048;-81
2023/09/16 10:37:15;;;;;;;;;;;;;;;31.23;37.50;99600.41;1457841;36;5643;-81
2023/09/16 10:38:18;;;;;;;;;;;;;;;30.51;38.58;99607.44;1453490;36;5907;-81
2023/09/16 10:39:21;;;;;;;;;;;;;;;30.54;38.64;99595.03;1454682;36;5794;-80
2023/09/16 10:40:28;;;;;;;;;;;;;;;30.55;39.03;99603.00;1458745;36;5727;-81
2023/09/16 10:41:30;;;;;;;;;;;;;;;30.76;38.78;99602.81;1459861;36;6320;-80
2023/09/16 10:42:35;;;;;;;;;;;;;;;31.11;38.38;99600.81;1447859;36;7285;-81
2023/09/16 10:43:35;;;;;;;;;;;;;;;31.43;38.00;99602.13;1461378;36;5303;-82
2023/09/16 10:44:40;;;;;;;;;;;;;;;31.52;36.85;99602.28;1449566;36;5196;-81
2023/09/16 10:45:41;;;;;;;;;;;;;;;31.34;37.21;99601.94;1461502;36;5218;-82
2023/09/16 10:46:45;;;;;;;;;;;;;;;31.17;37.41;99593.31;1454404;36;6503;-82
2023/09/16 10:47:47;;;;;;;;;;;;;;;31.15;37.49;99599.13;1455787;36;5576;-81
2023/09/16 10:48:51;;;;;;;;;;;;;;;31.12;37.56;99602.47;1452000;36;6001;-82
2023/09/16 10:49:53;;;;;;;;;;;;;;;31.46;37.54;99593.22;1444586;36;5300;-83
2023/09/16 10:51:02;;;;;;;;;;;;;;;31.51;37.08;99600.63;1442184;36;5127;-80
2023/09/16 10:52:20;;;;;;;;;;;;;;;31.40;36.98;99599.94;1444032;36;5205;-84
2023/09/16 10:53:29;;;;;;;;;;;;;;;30.64;38.00;99598.50;1461660;36;5583;-83
2023/09/16 10:54:45;;;;;;;;;;;;;;;29.91;39.64;99605.63;1452765;36;5663;-80
2023/09/16 10:55:54;;;;;;;;;;;;;;;30.26;39.36;99589.97;1447116;36;7170;-78
2023/09/16 10:56:56;;;;;;;;;;;;;;;30.12;39.42;99595.31;1459483;36;5686;-80
2023/09/16 10:58:05;;;;;;;;;;;;;;;29.67;39.83;99600.78;1082370;54;1165;-79
2023/09/16 10:59:08;;;;;;;;;;;;;;;29.96;39.67;99600.09;1105672;36;6300;-80
2023/09/16 11:00:13;;;;;;;;;;;;;;;30.06;39.01;99601.13;1482758;36;6365;-80
2023/09/16 11:01:16;;;;;;;;;;;;;;;29.75;39.31;99595.81;1448171;36;6690;-80
2023/09/16 11:02:34;;;;;;;;;;;;;;;29.65;39.75;99597.50;1399711;36;5887;-80
2023/09/16 11:03:39;;;;;;;;;;;;;;;29.68;39.77;99593.34;1454609;36;5596;-80
2023/09/16 11:04:43;;;;;;;;;;;;;;;29.68;40.06;99590.59;1227061;36;91601;-81
2023/09/16 11:05:43;;;;;;;;;;;;;;;29.46;40.54;99593.72;1082448;54;1056;-78
2023/09/16 13:12:25;;;;;;;;;;;;;;;29.01;38.01;99483.53;850989;64;52460;-81
2023/09/16 13:13:30;;;;;;;;;;;;;;;29.08;38.07;99478.53;1084165;47;2065;-82
2023/09/16 13:15:51;;;;;;;;;;;;;;;29.05;37.86;99471.69;1086159;46;1087;-81
2023/09/16 13:17:19;;;;;;;;;;;;;;;29.11;37.89;99470.53;1081996;47;1157;-80
2023/09/16 13:18:24;;;;;;;;;;;;;;;29.07;37.58;99472.22;1085473;54;1179;-79
2023/09/16 13:19:25;;;;;;;;;;;;;;;28.98;37.39;99465.66;1082213;47;1105;-79
2023/09/16 13:20:35;;;;;;;;;;;;;;;28.98;37.50;99471.16;1082677;47;1309;-79
2023/09/16 13:21:36;;;;;;;;;;;;;;;29.09;37.59;99470.03;1082508;47;1083;-80